createdAt,value
2022-11-03T00:01:12.173Z,3.77
2022-11-03T00:05:33.024Z,1.73
2022-11-03T00:09:55.455Z,2.73
2022-11-03T00:14:23.112Z,3.57
2022-11-03T00:18:25.054Z,2.07
2022-11-03T00:22:28.397Z,3.00
2022-11-03T00:26:32.702Z,3.83
2022-11-03T00:30:34.656Z,1.80
2022-11-03T00:35:17.909Z,2.70
2022-11-03T00:39:22.145Z,3.43
2022-11-03T00:43:29.708Z,3.07
2022-11-03T00:47:31.863Z,1.20
2022-11-03T00:51:37.071Z,2.33
2022-11-03T00:55:39.124Z,2.13
2022-11-03T00:59:41.076Z,3.97
2022-11-03T01:04:29.344Z,1.63
2022-11-03T01:08:35.268Z,3.30
2022-11-03T01:12:37.198Z,3.47
2022-11-03T01:16:39.151Z,1.30
2022-11-03T01:20:43.262Z,2.57
2022-11-03T01:24:46.041Z,4.37
2022-11-03T01:28:48.817Z,3.47
2022-11-03T01:32:50.658Z,3.60
2022-11-03T01:36:52.549Z,2.03
2022-11-03T01:41:03.054Z,3.10
2022-11-03T01:45:05.226Z,2.73
2022-11-03T01:49:53.846Z,1.90
2022-11-03T01:53:58.784Z,1.83
2022-11-03T01:58:14.803Z,2.10
2022-11-03T02:02:16.947Z,2.90
2022-11-03T02:06:22.617Z,5.30
2022-11-03T02:10:25.128Z,4.03
2022-11-03T02:14:27.055Z,6.80
2022-11-03T02:18:54.439Z,6.17
2022-11-03T02:28:32.682Z,6.67
2022-11-03T02:33:18.462Z,5.43
2022-11-03T02:37:42.947Z,4.17
2022-11-03T02:41:46.906Z,5.10
2022-11-03T02:45:55.798Z,4.17
2022-11-03T02:49:58.448Z,6.73
2022-11-03T02:54:22.907Z,7.93
2022-11-03T02:58:55.298Z,5.20
2022-11-03T03:03:26.346Z,8.20
2022-11-03T03:07:36.231Z,6.27
2022-11-03T03:11:43.097Z,7.17
2022-11-03T03:16:12.735Z,6.37
2022-11-03T03:20:32.519Z,8.20
2022-11-03T03:25:21.333Z,4.83
2022-11-03T03:29:38.672Z,8.83
2022-11-03T03:34:31.437Z,4.77
2022-11-03T03:38:44.059Z,4.47
2022-11-03T03:43:06.105Z,10.20
2022-11-03T03:47:34.005Z,6.43
2022-11-03T03:51:37.568Z,5.50
2022-11-03T03:55:45.349Z,4.00
2022-11-03T03:59:47.523Z,4.93
2022-11-03T04:03:49.489Z,5.60
2022-11-03T04:07:51.835Z,6.20
2022-11-03T04:17:06.687Z,4.77
2022-11-03T04:21:53.808Z,5.27
2022-11-03T04:26:04.359Z,6.13
2022-11-03T04:30:15.695Z,6.63
2022-11-03T04:34:18.842Z,5.30
2022-11-03T04:38:49.509Z,5.70
2022-11-03T04:42:57.854Z,8.43
2022-11-03T04:46:59.763Z,6.77
2022-11-03T04:51:23.964Z,6.37
2022-11-03T04:55:53.539Z,8.50
2022-11-03T04:59:57.755Z,6.20
2022-11-03T05:05:09.281Z,4.63
2022-11-03T05:09:20.454Z,5.97
2022-11-03T05:13:47.596Z,7.10
2022-11-03T05:18:49.057Z,6.33
2022-11-03T05:23:50.238Z,8.27
2022-11-03T05:28:28.356Z,5.63
2022-11-03T05:32:50.605Z,6.00
2022-11-03T05:36:52.748Z,7.17
2022-11-03T05:41:03.011Z,5.27
2022-11-03T05:45:28.683Z,11.20
2022-11-03T05:50:11.714Z,4.67
2022-11-03T05:54:32.809Z,11.97
2022-11-03T05:58:53.657Z,4.33
2022-11-03T06:03:25.949Z,11.47
2022-11-03T06:07:43.597Z,5.57
2022-11-03T06:11:45.714Z,6.20
2022-11-03T06:15:49.837Z,8.07
2022-11-03T06:19:54.989Z,7.40
2022-11-03T06:23:58.332Z,7.03
2022-11-03T06:28:03.174Z,6.03
2022-11-03T06:32:13.415Z,10.00
2022-11-03T06:36:31.526Z,11.57
2022-11-03T06:40:42.638Z,6.20
2022-11-03T06:45:42.209Z,4.80
2022-11-03T06:50:23.257Z,9.83
2022-11-03T06:54:25.811Z,6.83
2022-11-03T07:03:31.348Z,7.73
2022-11-03T07:08:33.170Z,7.87
2022-11-03T07:18:37.029Z,10.23
2022-11-03T07:22:44.159Z,8.50
2022-11-03T07:27:15.028Z,6.10
2022-11-03T07:31:21.554Z,7.57
2022-11-03T07:36:14.205Z,5.93
2022-11-03T07:40:24.707Z,5.60
2022-11-03T07:44:29.008Z,13.50
2022-11-03T07:49:02.931Z,9.60
2022-11-03T07:53:25.645Z,8.13
2022-11-03T07:57:32.064Z,7.57
2022-11-03T08:02:03.323Z,5.27
2022-11-03T08:06:19.796Z,6.77
2022-11-03T08:10:22.294Z,6.53
2022-11-03T08:14:28.529Z,8.30
2022-11-03T08:18:30.557Z,4.70
2022-11-03T08:22:32.440Z,8.00
2022-11-03T08:26:34.334Z,5.03
2022-11-03T08:30:36.293Z,6.73
2022-11-03T08:35:05.405Z,8.13
2022-11-03T08:39:07.502Z,6.80
2022-11-03T08:43:36.953Z,7.23
2022-11-03T08:47:48.639Z,6.97
2022-11-03T08:51:53.199Z,12.43
2022-11-03T08:56:01.423Z,7.87
2022-11-03T09:00:10.196Z,7.77
2022-11-03T09:04:12.391Z,10.27
2022-11-03T09:12:38.634Z,8.70
2022-11-03T09:16:40.561Z,9.67
2022-11-03T09:20:42.489Z,6.47
2022-11-03T09:24:47.782Z,7.57
2022-11-03T09:30:06.456Z,8.60
2022-11-03T09:34:03.167Z,7.43
2022-11-03T09:38:08.226Z,11.07
2022-11-03T09:42:12.720Z,8.13
2022-11-03T09:46:16.627Z,8.50
2022-11-03T09:50:20.585Z,7.43
2022-11-03T09:54:37.279Z,5.57
2022-11-03T09:59:42.398Z,8.60
2022-11-03T10:03:44.366Z,7.57
2022-11-03T10:07:46.571Z,5.83
2022-11-03T10:11:53.127Z,9.00
2022-11-03T10:16:18.688Z,9.40
2022-11-03T10:20:47.095Z,9.90
2022-11-03T10:24:50.353Z,4.97
2022-11-03T10:29:06.319Z,6.40
2022-11-03T10:33:29.687Z,9.90
2022-11-03T10:37:57.362Z,9.53
2022-11-03T10:42:16.566Z,5.77
2022-11-03T10:46:44.761Z,9.57
2022-11-03T10:50:43.409Z,8.40
2022-11-03T10:55:20.540Z,6.77
2022-11-03T10:59:32.044Z,6.57
2022-11-03T11:04:23.625Z,5.80
2022-11-03T11:08:25.913Z,6.83
2022-11-03T11:12:28.102Z,6.73
2022-11-03T11:17:20.196Z,6.90
2022-11-03T11:21:25.095Z,6.30
2022-11-03T11:30:59.459Z,5.77
2022-11-03T11:35:56.472Z,5.00
2022-11-03T11:40:11.554Z,4.10
2022-11-03T11:44:56.825Z,8.00
2022-11-03T11:49:17.299Z,7.00
2022-11-03T11:53:23.944Z,5.60
2022-11-03T11:57:33.880Z,4.73
2022-11-03T12:01:37.938Z,6.70
2022-11-03T12:06:05.338Z,5.37
2022-11-03T12:10:37.897Z,9.00
2022-11-03T12:15:29.706Z,2.90
2022-11-03T12:19:41.297Z,4.33
2022-11-03T12:24:22.452Z,5.13
2022-11-03T12:28:36.105Z,3.93
2022-11-03T12:32:37.906Z,4.50
2022-11-03T12:36:40.165Z,4.43
2022-11-03T12:40:57.869Z,3.80
2022-11-03T12:46:06.405Z,2.90
2022-11-03T12:51:02.024Z,4.07
2022-11-03T12:55:34.040Z,5.70
2022-11-03T13:00:04.134Z,6.23
2022-11-03T13:04:06.406Z,2.53
2022-11-03T13:08:19.953Z,3.67
2022-11-03T13:12:31.960Z,2.57
2022-11-03T13:16:33.993Z,4.30
2022-11-03T13:20:36.152Z,4.73
2022-11-03T13:24:39.168Z,4.37
2022-11-03T13:28:45.841Z,5.37
2022-11-03T13:33:15.638Z,3.80
2022-11-03T13:38:15.323Z,3.63
2022-11-03T13:43:08.216Z,3.67
2022-11-03T13:47:16.512Z,6.03
2022-11-03T13:51:42.898Z,5.30
2022-11-03T13:55:46.064Z,4.13
2022-11-03T13:59:48.248Z,2.60
2022-11-03T14:08:12.092Z,2.63
2022-11-03T14:12:35.972Z,3.77
2022-11-03T14:16:44.424Z,4.90
2022-11-03T14:20:46.493Z,2.43
2022-11-03T14:24:48.859Z,5.23
2022-11-03T14:29:49.969Z,3.33
2022-11-03T14:34:19.980Z,6.00
2022-11-03T14:38:21.954Z,4.23
2022-11-03T14:42:52.112Z,4.30
2022-11-03T14:46:55.218Z,4.73
2022-11-03T14:50:57.195Z,5.53
2022-11-03T14:54:59.089Z,5.60
2022-11-03T14:59:01.039Z,4.37
2022-11-03T15:03:03.530Z,5.40
2022-11-03T15:07:05.446Z,5.40
2022-11-03T15:11:11.590Z,7.40
2022-11-03T15:15:14.030Z,6.17
2022-11-03T15:19:16.012Z,4.13
2022-11-03T15:28:05.665Z,6.80
2022-11-03T15:32:08.060Z,4.00
2022-11-03T15:36:10.300Z,5.53
2022-11-03T15:40:16.904Z,5.53
2022-11-03T15:44:18.757Z,6.80
2022-11-03T15:48:20.618Z,9.23
2022-11-03T15:52:22.517Z,5.57
2022-11-03T15:56:24.668Z,5.23
2022-11-03T16:00:26.610Z,7.40
2022-11-03T16:04:30.803Z,8.97
2022-11-03T16:08:32.998Z,9.07
2022-11-03T16:12:36.232Z,6.27
2022-11-03T16:16:50.514Z,7.37
2022-11-03T16:21:18.123Z,6.73
2022-11-03T16:25:21.662Z,7.73
2022-11-03T16:30:18.991Z,5.27
2022-11-03T16:38:37.877Z,10.13
2022-11-03T16:42:39.941Z,10.87
2022-11-03T16:46:41.851Z,8.27
2022-11-03T16:50:46.059Z,8.33
2022-11-03T16:55:25.673Z,8.73
2022-11-03T16:59:58.171Z,11.90
2022-11-03T17:04:00.243Z,8.93
2022-11-03T17:08:02.448Z,7.70
2022-11-03T17:12:04.572Z,13.57
2022-11-03T17:16:06.580Z,10.80
2022-11-03T17:20:09.528Z,11.00
2022-11-03T17:24:13.478Z,8.17
2022-11-03T17:28:36.575Z,8.30
2022-11-03T17:33:45.292Z,7.47
2022-11-03T17:37:52.583Z,10.10
2022-11-03T17:42:16.197Z,9.17
2022-11-03T17:46:18.099Z,11.07
2022-11-03T17:50:22.325Z,9.07
2022-11-03T17:54:30.343Z,10.57
2022-11-03T17:58:34.515Z,13.10
2022-11-03T18:02:40.307Z,10.03
2022-11-03T18:06:53.403Z,10.03
2022-11-03T18:11:43.621Z,10.30
2022-11-03T18:15:56.521Z,11.10
2022-11-03T18:26:00.598Z,9.93
2022-11-03T18:30:10.821Z,7.67
2022-11-03T18:34:15.857Z,10.00
2022-11-03T18:38:18.194Z,9.00
2022-11-03T18:42:20.094Z,14.70
2022-11-03T18:46:32.779Z,9.47
2022-11-03T18:51:03.257Z,8.90
2022-11-03T18:55:13.428Z,10.60
2022-11-03T18:59:43.892Z,10.37
2022-11-03T19:04:14.948Z,11.10
2022-11-03T19:08:33.697Z,8.90
2022-11-03T19:12:43.932Z,8.53
2022-11-03T19:17:02.246Z,12.00
2022-11-03T19:22:00.850Z,13.77
2022-11-03T19:26:02.970Z,10.00
2022-11-03T19:30:31.261Z,11.90
2022-11-03T19:34:35.435Z,14.57
2022-11-03T19:39:03.095Z,10.43
2022-11-03T19:43:19.312Z,14.17
2022-11-03T19:47:25.979Z,13.87
2022-11-03T19:51:44.658Z,11.47
2022-11-03T19:56:12.636Z,11.30
2022-11-03T20:00:33.147Z,19.07
2022-11-03T20:04:39.277Z,11.73
2022-11-03T20:08:47.733Z,12.77
2022-11-03T20:12:50.328Z,11.93
2022-11-03T20:16:57.062Z,12.80
2022-11-03T20:27:22.826Z,14.63
2022-11-03T20:31:26.818Z,20.37
2022-11-03T20:35:28.785Z,16.50
2022-11-03T20:39:30.691Z,15.57
2022-11-03T20:43:37.627Z,18.67
2022-11-03T20:47:48.320Z,25.10
2022-11-03T20:51:51.024Z,27.60
2022-11-03T20:55:53.520Z,24.07
2022-11-03T20:59:57.505Z,22.33
2022-11-03T21:04:01.216Z,25.43
2022-11-03T21:08:03.170Z,24.80
2022-11-03T21:12:22.756Z,29.10
2022-11-03T21:16:44.667Z,27.67
2022-11-03T21:20:52.659Z,22.83
2022-11-03T21:24:56.893Z,25.47
2022-11-03T21:28:58.919Z,24.27
2022-11-03T21:33:01.111Z,29.53
2022-11-03T21:37:09.525Z,26.90
2022-11-03T21:41:32.034Z,27.43
2022-11-03T21:45:34.229Z,25.43
2022-11-03T21:50:37.966Z,21.97
2022-11-03T21:55:47.380Z,23.47
2022-11-03T22:00:43.303Z,26.50
2022-11-03T22:05:12.976Z,25.33
2022-11-03T22:09:15.395Z,25.40
2022-11-03T22:13:17.312Z,28.07
2022-11-03T22:17:19.354Z,28.50
2022-11-03T22:21:39.886Z,30.73
2022-11-03T22:26:07.438Z,29.23
2022-11-03T22:31:21.863Z,27.67
2022-11-03T22:35:46.653Z,35.33
2022-11-03T22:40:07.647Z,29.63
2022-11-03T22:45:26.422Z,33.40
2022-11-03T22:49:28.324Z,33.27
2022-11-03T22:53:50.783Z,32.87
2022-11-03T22:57:52.793Z,37.43
2022-11-03T23:02:07.000Z,40.03
2022-11-03T23:06:12.682Z,42.83
2022-11-03T23:10:34.356Z,51.97
2022-11-03T23:20:58.065Z,85.00
2022-11-03T23:25:09.292Z,177.67
2022-11-03T23:29:37.444Z,72.40
2022-11-03T23:33:47.856Z,174.40
2022-11-03T23:37:51.883Z,105.60
2022-11-03T23:42:07.453Z,95.47
2022-11-03T23:46:32.892Z,67.07
2022-11-03T23:51:12.624Z,51.50
2022-11-03T23:55:14.454Z,57.93
2022-11-03T23:59:17.547Z,72.53
